Time;durP1;ratioP1;P1;durP2;ratioP2;P2;SDS_P1;SDS_P2;PMS_P1;PMS_P2;Temp;Humidity;BMP_temperature;BMP_pressure;BME280_temperature;BME280_humidity;BME280_pressure;Samples;Min_cycle;Max_cycle;Signal;HPM_P1;HPM_P2
2023/09/05 00:01:40;;;;;;;3.15;2.95;;;22.10;99.90;;;;;;4999476;28;20278;-68
2023/09/05 00:04:07;;;;;;;3.33;3.05;;;22.10;99.90;;;;;;4998550;28;20660;-68
2023/09/05 00:06:37;;;;;;;3.30;2.85;;;22.10;99.90;;;;;;4999346;28;20204;-68
2023/09/05 00:09:04;;;;;;;2.90;2.70;;;22.10;99.90;;;;;;5002910;28;20815;-69
2023/09/05 00:11:34;;;;;;;3.80;3.33;;;22.10;99.90;;;;;;5000278;28;20208;-68
2023/09/05 00:14:01;;;;;;;3.40;2.90;;;22.10;99.90;;;;;;5002163;28;20232;-69
2023/09/05 00:16:29;;;;;;;3.10;2.90;;;22.10;99.90;;;;;;4991349;28;20295;-69
2023/09/05 00:18:56;;;;;;;3.67;2.63;;;22.10;99.90;;;;;;4994644;28;20212;-69
2023/09/05 00:21:23;;;;;;;2.53;2.38;;;22.10;99.90;;;;;;4997276;28;21084;-68
2023/09/05 00:23:50;;;;;;;4.13;3.83;;;22.20;99.90;;;;;;5003726;28;20798;-69
2023/09/05 00:26:17;;;;;;;3.20;3.00;;;22.20;99.90;;;;;;4998457;28;20233;-69
2023/09/05 00:28:46;;;;;;;3.13;2.60;;;22.20;99.90;;;;;;4990815;28;20724;-69
2023/09/05 00:31:14;;;;;;;2.97;2.67;;;22.20;99.90;;;;;;4999268;28;20196;-68
2023/09/05 00:33:41;;;;;;;2.58;2.45;;;22.20;99.90;;;;;;5000798;28;20222;-69
2023/09/05 00:36:08;;;;;;;4.70;3.10;;;22.20;99.90;;;;;;4999070;28;20192;-69
2023/09/05 00:38:36;;;;;;;3.30;3.00;;;22.30;99.90;;;;;;4998298;28;20203;-69
2023/09/05 00:41:04;;;;;;;3.65;3.30;;;22.20;99.90;;;;;;5000527;28;20216;-69
2023/09/05 00:43:31;;;;;;;4.35;3.95;;;22.20;99.90;;;;;;5000012;28;20379;-69
2023/09/05 00:46:00;;;;;;;3.95;3.65;;;22.10;99.90;;;;;;4999451;28;20290;-69
2023/09/05 00:48:28;;;;;;;3.83;3.53;;;22.10;99.90;;;;;;4996100;28;20296;-69
2023/09/05 00:50:57;;;;;;;6.00;3.78;;;22.00;99.90;;;;;;4999626;28;20207;-69
2023/09/05 00:53:25;;;;;;;3.50;3.20;;;22.00;99.90;;;;;;5001849;28;20208;-68
2023/09/05 00:55:52;;;;;;;3.75;3.38;;;22.00;99.90;;;;;;4994228;28;20227;-69
2023/09/05 00:58:20;;;;;;;4.00;3.70;;;22.00;99.90;;;;;;5003298;28;20196;-69
2023/09/05 01:00:47;;;;;;;4.63;3.58;;;22.00;99.90;;;;;;5003937;28;20830;-69
2023/09/05 01:03:15;;;;;;;3.80;3.50;;;21.90;99.90;;;;;;5004232;28;20267;-69
2023/09/05 01:05:47;;;;;;;3.35;3.13;;;21.90;99.90;;;;;;5006248;28;20319;-69
2023/09/05 01:08:21;;;;;;;2.80;2.60;;;21.90;99.90;;;;;;5005442;28;20231;-68
2023/09/05 01:10:56;;;;;;;2.58;2.42;;;21.90;99.90;;;;;;5003050;28;20200;-69
2023/09/05 01:13:25;;;;;;;4.72;3.50;;;21.90;99.90;;;;;;4987807;28;20295;-69
2023/09/05 01:15:52;;;;;;;3.65;3.35;;;21.70;99.90;;;;;;5004944;28;20596;-69
2023/09/05 01:18:21;;;;;;;3.30;3.00;;;21.50;99.90;;;;;;5003236;28;20209;-68
2023/09/05 01:20:55;;;;;;;3.05;2.55;;;21.50;99.90;;;;;;4986284;28;20231;-69
2023/09/05 01:23:29;;;;;;;2.53;2.33;;;21.50;99.90;;;;;;5001119;28;20220;-69
2023/09/05 01:25:59;;;;;;;3.40;3.10;;;21.60;99.90;;;;;;5005617;28;20201;-69
2023/09/05 01:28:27;;;;;;;2.67;2.47;;;21.50;99.90;;;;;;5002872;28;20200;-69
2023/09/05 01:30:54;;;;;;;3.67;3.38;;;21.40;99.90;;;;;;4988068;28;20200;-69
2023/09/05 01:33:21;;;;;;;3.40;3.10;;;21.40;99.90;;;;;;5003908;28;20292;-69
2023/09/05 01:35:48;;;;;;;2.90;2.70;;;21.30;99.90;;;;;;5006679;28;21129;-69
2023/09/05 01:38:16;;;;;;;2.63;2.42;;;21.20;99.90;;;;;;5004668;28;20251;-69
2023/09/05 01:40:43;;;;;;;2.38;2.28;;;21.20;99.90;;;;;;5006541;28;20988;-69
2023/09/05 01:43:11;;;;;;;2.83;2.63;;;21.30;99.90;;;;;;4995643;28;20251;-69
2023/09/05 01:45:38;;;;;;;4.03;2.97;;;21.30;99.90;;;;;;4986777;28;20307;-69
2023/09/05 01:48:05;;;;;;;2.63;2.45;;;21.40;99.90;;;;;;5001883;28;20209;-69
2023/09/05 01:50:33;;;;;;;2.70;2.50;;;21.40;99.90;;;;;;5003058;28;20242;-69
2023/09/05 01:53:00;;;;;;;2.70;2.50;;;21.50;99.90;;;;;;5001686;28;20291;-69
2023/09/05 01:55:27;;;;;;;2.35;2.25;;;21.40;99.90;;;;;;5000436;28;20665;-69
2023/09/05 01:57:54;;;;;;;2.45;2.20;;;21.40;99.90;;;;;;5006533;28;20275;-69
2023/09/05 02:00:22;;;;;;;2.70;2.50;;;21.40;99.90;;;;;;5000279;28;20244;-69
2023/09/05 02:02:49;;;;;;;3.08;2.65;;;21.40;99.90;;;;;;4984234;28;20786;-69
2023/09/05 02:05:17;;;;;;;2.85;2.65;;;21.40;99.90;;;;;;5005403;28;20224;-69
2023/09/05 02:07:43;;;;;;;2.80;2.60;;;21.30;99.90;;;;;;5010534;28;20617;-69
2023/09/05 02:10:11;;;;;;;2.75;2.55;;;21.30;99.90;;;;;;5007034;28;20751;-69
2023/09/05 02:12:38;;;;;;;2.42;2.30;;;21.30;99.90;;;;;;5008975;28;20200;-69
2023/09/05 02:15:06;;;;;;;2.88;2.67;;;21.30;99.90;;;;;;5002413;28;20278;-69
2023/09/05 02:17:35;;;;;;;2.60;2.40;;;21.30;99.90;;;;;;5000587;28;20207;-69
2023/09/05 02:20:03;;;;;;;2.67;2.47;;;21.30;99.90;;;;;;5003575;28;20703;-69
2023/09/05 02:22:30;;;;;;;2.55;2.38;;;21.30;99.90;;;;;;5001510;28;20212;-69
2023/09/05 02:24:59;;;;;;;2.72;2.53;;;21.30;99.90;;;;;;5002579;28;20255;-69
2023/09/05 02:27:26;;;;;;;2.42;2.28;;;21.20;99.90;;;;;;5003167;28;20200;-69
2023/09/05 02:29:59;;;;;;;2.50;2.30;;;21.20;99.90;;;;;;5000843;28;20290;-69
2023/09/05 02:32:29;;;;;;;2.40;2.30;;;21.20;99.90;;;;;;5003812;28;20939;-69
2023/09/05 02:34:57;;;;;;;2.60;2.40;;;21.20;99.90;;;;;;5005349;28;20224;-68
2023/09/05 02:37:24;;;;;;;2.63;2.42;;;21.30;99.90;;;;;;4995885;28;20288;-68
2023/09/05 02:39:51;;;;;;;2.78;2.55;;;21.30;99.90;;;;;;5001512;28;20885;-68
2023/09/05 02:42:18;;;;;;;2.38;2.28;;;21.20;99.90;;;;;;5001720;28;20515;-68
2023/09/05 02:44:45;;;;;;;2.42;2.22;;;21.20;99.90;;;;;;5002246;28;20375;-68
2023/09/05 02:47:12;;;;;;;2.70;2.50;;;21.20;99.90;;;;;;5000527;28;20267;-68
2023/09/05 02:49:39;;;;;;;2.75;2.55;;;21.30;99.90;;;;;;5005551;28;20724;-68
2023/09/05 02:52:08;;;;;;;2.65;2.45;;;21.20;99.90;;;;;;4982767;28;20279;-68
2023/09/05 02:54:35;;;;;;;2.55;2.40;;;21.20;99.90;;;;;;4999012;28;20629;-68
2023/09/05 02:57:02;;;;;;;2.70;2.50;;;21.20;99.90;;;;;;5001469;28;20250;-68
2023/09/05 02:59:29;;;;;;;2.58;2.38;;;21.20;99.90;;;;;;4999418;28;20263;-68
2023/09/05 03:01:55;;;;;;;2.60;2.40;;;21.20;99.90;;;;;;5000108;28;20323;-69
2023/09/05 03:04:22;;;;;;;2.28;2.17;;;21.20;99.90;;;;;;5002389;28;20224;-69
2023/09/05 03:06:49;;;;;;;3.00;2.33;;;21.20;99.90;;;;;;5001718;28;20232;-69
2023/09/05 03:09:18;;;;;;;2.78;2.58;;;21.20;99.90;;;;;;4998240;28;20240;-69
2023/09/05 03:11:45;;;;;;;2.67;2.55;;;21.20;99.90;;;;;;5002152;28;20200;-69
2023/09/05 03:14:12;;;;;;;2.78;2.58;;;21.10;99.90;;;;;;4997696;28;20860;-69
2023/09/05 03:16:39;;;;;;;3.85;2.78;;;21.10;99.90;;;;;;5000066;28;20209;-69
2023/09/05 03:19:06;;;;;;;2.17;2.08;;;21.10;99.90;;;;;;5001686;28;20274;-69
2023/09/05 03:21:33;;;;;;;2.33;2.13;;;21.10;99.90;;;;;;5001362;28;20221;-69
2023/09/05 03:24:00;;;;;;;3.08;2.35;;;21.10;99.90;;;;;;5001641;28;20305;-69
2023/09/05 03:26:29;;;;;;;2.70;2.50;;;21.00;99.90;;;;;;5003135;28;20779;-69
2023/09/05 03:28:56;;;;;;;2.90;2.22;;;20.90;99.90;;;;;;5002894;28;20234;-69
2023/09/05 03:31:23;;;;;;;2.35;2.25;;;20.80;99.90;;;;;;5000862;28;20326;-69
2023/09/05 03:33:50;;;;;;;2.42;2.28;;;20.80;99.90;;;;;;5000708;28;20220;-69
2023/09/05 03:36:17;;;;;;;2.40;2.30;;;20.80;99.90;;;;;;4999732;28;20745;-69
2023/09/05 03:38:45;;;;;;;2.28;2.08;;;20.80;99.90;;;;;;5001785;28;20222;-69
2023/09/05 03:41:12;;;;;;;2.30;2.10;;;20.90;99.90;;;;;;5001157;28;20271;-69
2023/09/05 03:43:40;;;;;;;2.30;2.20;;;20.90;99.90;;;;;;4993908;28;20758;-69
2023/09/05 03:46:07;;;;;;;2.65;2.45;;;20.90;99.90;;;;;;4981938;28;20704;-69
2023/09/05 03:48:34;;;;;;;2.40;2.20;;;21.00;99.90;;;;;;5001120;28;20247;-69
2023/09/05 03:51:01;;;;;;;2.67;2.47;;;20.90;99.90;;;;;;5002867;28;20196;-69
2023/09/05 03:53:28;;;;;;;2.65;2.45;;;21.00;99.90;;;;;;4999698;28;20208;-69
2023/09/05 03:55:55;;;;;;;2.58;2.38;;;20.90;99.90;;;;;;4999789;28;20201;-69
2023/09/05 03:58:22;;;;;;;2.58;2.38;;;20.90;99.90;;;;;;5002061;28;20250;-68
2023/09/05 04:00:50;;;;;;;2.47;2.22;;;20.90;99.90;;;;;;4998726;28;20828;-68
2023/09/05 04:03:17;;;;;;;2.60;2.40;;;20.80;99.90;;;;;;4996624;28;20200;-68
2023/09/05 04:05:44;;;;;;;2.58;2.38;;;20.80;99.90;;;;;;4987549;28;20223;-69
2023/09/05 04:08:11;;;;;;;2.22;2.13;;;20.80;99.90;;;;;;5004977;28;20794;-68
2023/09/05 04:10:38;;;;;;;2.45;2.25;;;20.80;99.90;;;;;;5000006;28;20283;-68
2023/09/05 04:13:05;;;;;;;2.53;2.33;;;20.80;99.90;;;;;;5005259;28;20204;-69
2023/09/05 04:15:33;;;;;;;2.10;1.88;;;20.80;99.90;;;;;;4993615;28;20238;-69
2023/09/05 04:18:01;;;;;;;2.25;2.15;;;20.70;99.90;;;;;;5002706;28;20242;-69
2023/09/05 04:20:29;;;;;;;2.40;2.30;;;20.70;99.90;;;;;;4999487;28;20262;-69
2023/09/05 04:22:56;;;;;;;2.60;2.40;;;20.70;99.90;;;;;;5000565;28;20204;-69
2023/09/05 04:25:27;;;;;;;2.30;2.15;;;20.70;99.90;;;;;;5004867;28;20220;-69
2023/09/05 04:27:54;;;;;;;2.35;2.25;;;20.80;99.90;;;;;;5004435;28;20200;-69
2023/09/05 04:30:21;;;;;;;2.63;2.42;;;20.80;99.90;;;;;;4965380;28;1166182;-69
2023/09/05 04:32:48;;;;;;;2.28;2.15;;;20.80;99.90;;;;;;5001749;28;20208;-69
2023/09/05 04:35:16;;;;;;;2.67;2.47;;;20.80;99.90;;;;;;5000895;28;20316;-69
2023/09/05 04:37:43;;;;;;;2.40;2.30;;;20.90;99.90;;;;;;5001337;28;20242;-68
2023/09/05 04:40:11;;;;;;;2.53;2.33;;;20.80;99.90;;;;;;5000689;28;20207;-68
2023/09/05 04:42:39;;;;;;;2.58;2.38;;;20.80;99.90;;;;;;5006437;28;20714;-68
2023/09/05 04:45:07;;;;;;;2.40;2.28;;;20.80;99.90;;;;;;5001518;28;20230;-68
2023/09/05 04:47:34;;;;;;;2.50;2.30;;;20.80;99.90;;;;;;5005485;28;20259;-68
2023/09/05 04:50:01;;;;;;;2.33;2.20;;;20.80;99.90;;;;;;5005749;28;20238;-68
2023/09/05 04:52:30;;;;;;;4.40;2.20;;;20.80;99.90;;;;;;5004037;28;20251;-68
2023/09/05 04:54:58;;;;;;;2.28;2.17;;;20.80;99.90;;;;;;5003331;28;20228;-68
2023/09/05 04:57:26;;;;;;;2.58;2.38;;;20.80;99.90;;;;;;5006884;28;20292;-68
2023/09/05 04:59:57;;;;;;;3.17;2.35;;;20.80;99.90;;;;;;4999719;28;20242;-68
2023/09/05 05:02:25;;;;;;;2.92;2.58;;;20.80;99.90;;;;;;5005374;28;20270;-68
2023/09/05 05:04:53;;;;;;;2.75;2.55;;;20.90;99.90;;;;;;5004892;28;20270;-68
2023/09/05 05:07:20;;;;;;;2.30;2.10;;;20.90;99.90;;;;;;4987148;28;20713;-68
2023/09/05 05:09:49;;;;;;;2.67;2.47;;;20.90;99.90;;;;;;5004452;28;20929;-68
2023/09/05 05:12:16;;;;;;;2.60;2.40;;;20.80;99.90;;;;;;5008466;28;20768;-68
2023/09/05 05:14:44;;;;;;;2.20;2.10;;;20.70;99.90;;;;;;5002218;28;20216;-68
2023/09/05 05:17:12;;;;;;;2.50;2.15;;;20.70;99.90;;;;;;4999641;28;20205;-68
2023/09/05 05:19:39;;;;;;;2.30;2.10;;;20.60;99.90;;;;;;5007877;28;20216;-68
2023/09/05 05:22:06;;;;;;;2.47;2.28;;;20.60;99.90;;;;;;5004192;28;20640;-68
2023/09/05 05:24:33;;;;;;;2.80;2.60;;;20.60;99.90;;;;;;4985161;28;20246;-68
2023/09/05 05:27:02;;;;;;;2.58;2.38;;;20.70;99.90;;;;;;5004121;28;20734;-68
2023/09/05 05:29:32;;;;;;;2.55;2.35;;;20.80;99.90;;;;;;4988021;28;20311;-68
2023/09/05 05:32:00;;;;;;;2.95;2.33;;;20.80;99.90;;;;;;4989657;28;20235;-69
2023/09/05 05:34:27;;;;;;;2.67;2.47;;;20.90;99.90;;;;;;5007986;28;20228;-70
2023/09/05 05:36:54;;;;;;;3.13;2.08;;;20.90;99.90;;;;;;5005317;28;20326;-69
2023/09/05 05:39:22;;;;;;;2.55;2.25;;;20.90;99.90;;;;;;5005358;28;20722;-69
2023/09/05 05:41:49;;;;;;;2.88;2.50;;;20.90;99.90;;;;;;5003052;28;20220;-69
2023/09/05 05:44:18;;;;;;;3.03;2.75;;;20.90;99.90;;;;;;5004102;28;20239;-70
2023/09/05 05:46:45;;;;;;;2.90;2.70;;;20.80;99.90;;;;;;4986399;28;20200;-68
2023/09/05 05:49:12;;;;;;;2.40;2.20;;;20.80;99.90;;;;;;5003299;28;20209;-69
2023/09/05 05:51:41;;;;;;;2.55;2.35;;;20.70;99.90;;;;;;5004967;28;20232;-69
2023/09/05 05:54:08;;;;;;;3.20;2.20;;;20.70;99.90;;;;;;5001574;28;20805;-69
2023/09/05 05:56:35;;;;;;;2.90;2.38;;;20.70;99.90;;;;;;5002892;28;20287;-68
2023/09/05 05:59:02;;;;;;;2.50;2.30;;;20.80;99.90;;;;;;5008487;28;20825;-69
2023/09/05 06:01:32;;;;;;;2.47;2.28;;;20.80;99.90;;;;;;4998304;28;20256;-69
2023/09/05 06:03:59;;;;;;;2.38;2.20;;;20.90;99.90;;;;;;5004730;28;20232;-69
2023/09/05 06:06:26;;;;;;;2.95;2.33;;;21.00;99.90;;;;;;5003082;28;20650;-69
2023/09/05 06:08:53;;;;;;;2.42;2.22;;;21.10;99.90;;;;;;5001621;28;20327;-69
2023/09/05 06:11:20;;;;;;;2.67;2.47;;;21.10;99.90;;;;;;5007403;28;20196;-68
2023/09/05 06:13:47;;;;;;;2.30;2.10;;;21.00;99.90;;;;;;5002570;28;20267;-68
2023/09/05 06:16:14;;;;;;;2.33;2.13;;;20.90;99.90;;;;;;5006646;28;20291;-68
2023/09/05 06:18:42;;;;;;;2.60;2.33;;;20.80;99.90;;;;;;5003352;28;20296;-69
2023/09/05 06:21:09;;;;;;;2.70;2.50;;;20.80;99.90;;;;;;4984325;28;20665;-69
2023/09/05 06:23:36;;;;;;;2.88;2.50;;;21.00;99.90;;;;;;5004110;28;20204;-69
2023/09/05 06:26:05;;;;;;;2.42;2.22;;;21.10;99.90;;;;;;5006976;28;20258;-69
2023/09/05 06:28:32;;;;;;;2.63;2.42;;;21.20;99.90;;;;;;5003666;28;20282;-69
2023/09/05 06:30:59;;;;;;;2.20;2.10;;;21.20;99.90;;;;;;4988531;28;20625;-68
2023/09/05 06:33:28;;;;;;;2.78;2.50;;;21.10;99.90;;;;;;5003994;28;20204;-69
2023/09/05 06:35:56;;;;;;;2.80;2.25;;;21.10;99.90;;;;;;5003224;28;20250;-69
2023/09/05 06:38:23;;;;;;;2.45;2.30;;;21.20;99.90;;;;;;5002778;28;20283;-68
2023/09/05 06:40:50;;;;;;;2.60;2.40;;;21.30;99.90;;;;;;4998456;28;20204;-68
2023/09/05 06:43:17;;;;;;;3.22;2.60;;;21.30;99.90;;;;;;5001948;28;20217;-68
2023/09/05 06:45:44;;;;;;;2.72;2.53;;;21.30;99.90;;;;;;5004767;28;20323;-68
2023/09/05 06:48:11;;;;;;;3.03;2.50;;;21.20;99.90;;;;;;5001246;28;20230;-68
2023/09/05 06:50:38;;;;;;;2.72;2.53;;;21.20;99.90;;;;;;4996733;28;20291;-68
2023/09/05 06:53:07;;;;;;;2.70;2.50;;;21.30;99.90;;;;;;5001737;28;20200;-68
2023/09/05 06:55:34;;;;;;;3.10;2.30;;;21.40;99.90;;;;;;4999877;28;20220;-68
2023/09/05 06:58:02;;;;;;;2.25;2.10;;;21.40;99.90;;;;;;4998966;28;20276;-68
2023/09/05 07:00:29;;;;;;;2.55;2.35;;;21.50;99.90;;;;;;5001478;28;20196;-68
2023/09/05 07:02:56;;;;;;;2.40;2.20;;;21.50;99.90;;;;;;4998864;28;20762;-68
2023/09/05 07:05:24;;;;;;;2.33;2.13;;;21.60;99.90;;;;;;4980978;28;20307;-69
2023/09/05 07:07:51;;;;;;;2.33;2.20;;;21.60;99.90;;;;;;4995130;28;20771;-69
2023/09/05 07:10:19;;;;;;;2.50;2.30;;;21.60;99.90;;;;;;5002660;28;20266;-69
2023/09/05 07:12:46;;;;;;;1.98;1.80;;;21.60;99.90;;;;;;4984074;28;20685;-69
2023/09/05 07:15:13;;;;;;;2.85;2.03;;;21.60;99.90;;;;;;4999930;28;20303;-69
2023/09/05 07:17:40;;;;;;;2.13;1.90;;;21.60;99.90;;;;;;5000281;28;20253;-68
2023/09/05 07:20:09;;;;;;;2.40;2.20;;;21.70;99.90;;;;;;5001256;28;20232;-69
2023/09/05 07:22:36;;;;;;;2.33;2.13;;;21.80;99.90;;;;;;4997308;28;20274;-69
2023/09/05 07:25:04;;;;;;;1.98;1.88;;;22.00;99.90;;;;;;4999159;28;20225;-70
2023/09/05 07:27:32;;;;;;;2.20;2.00;;;22.20;99.90;;;;;;4998524;28;20204;-70
2023/09/05 07:29:59;;;;;;;2.35;2.15;;;22.40;99.90;;;;;;4982858;28;20306;-70
2023/09/05 07:32:26;;;;;;;2.25;2.05;;;22.60;99.90;;;;;;5000437;28;20299;-70
2023/09/05 07:34:53;;;;;;;2.50;2.30;;;23.00;99.90;;;;;;4992682;28;20777;-69
2023/09/05 07:37:20;;;;;;;2.30;2.10;;;23.50;99.90;;;;;;4998699;28;20205;-70
2023/09/05 07:39:50;;;;;;;2.63;2.42;;;24.40;99.90;;;;;;5001053;28;20292;-70
2023/09/05 07:42:18;;;;;;;3.67;2.30;;;24.80;99.90;;;;;;4997402;28;20218;-70
2023/09/05 07:44:47;;;;;;;3.53;2.75;;;24.90;99.90;;;;;;4997418;28;20310;-70
2023/09/05 07:47:14;;;;;;;2.90;2.70;;;24.80;99.90;;;;;;4998477;28;20200;-70
2023/09/05 07:49:42;;;;;;;3.00;2.70;;;24.50;99.90;;;;;;5000094;28;20286;-69
2023/09/05 07:52:09;;;;;;;3.38;2.40;;;24.30;99.90;;;;;;5006370;28;20597;-70
2023/09/05 07:54:36;;;;;;;2.97;2.65;;;24.50;99.90;;;;;;4984871;28;20311;-69
2023/09/05 07:57:04;;;;;;;3.33;2.40;;;24.60;99.90;;;;;;4998178;28;20200;-70
2023/09/05 07:59:31;;;;;;;2.83;2.63;;;24.50;99.90;;;;;;4998105;28;20236;-70
2023/09/05 08:02:00;;;;;;;2.65;2.45;;;24.40;99.90;;;;;;4996519;28;20223;-71
2023/09/05 08:04:28;;;;;;;3.13;2.70;;;24.30;99.90;;;;;;4998141;28;20228;-70
2023/09/05 08:06:55;;;;;;;3.28;2.83;;;24.00;99.90;;;;;;4979577;28;20207;-70
2023/09/05 08:09:22;;;;;;;2.83;2.63;;;23.70;99.90;;;;;;4996211;28;20283;-70
2023/09/05 08:11:49;;;;;;;4.90;3.00;;;23.60;99.90;;;;;;4995533;28;20223;-70
2023/09/05 08:14:16;;;;;;;2.75;2.55;;;23.60;99.90;;;;;;5001086;28;20251;-70
2023/09/05 08:16:43;;;;;;;4.82;2.95;;;23.50;99.90;;;;;;4996391;28;20753;-71
2023/09/05 08:19:12;;;;;;;5.05;2.72;;;23.40;99.90;;;;;;4997942;28;20684;-71
2023/09/05 08:21:39;;;;;;;2.90;2.70;;;23.40;99.90;;;;;;4995421;28;20208;-70
2023/09/05 08:24:07;;;;;;;3.40;3.10;;;23.50;99.90;;;;;;5001319;28;20270;-70
2023/09/05 08:26:36;;;;;;;3.25;2.95;;;23.60;99.90;;;;;;4995816;28;20200;-70
2023/09/05 08:29:03;;;;;;;2.95;2.70;;;23.70;99.90;;;;;;4998122;28;20789;-70
2023/09/05 08:31:30;;;;;;;3.00;2.80;;;23.70;99.90;;;;;;5000411;28;20215;-70
2023/09/05 08:33:58;;;;;;;3.35;3.00;;;23.70;99.90;;;;;;5001891;28;20224;-70
2023/09/05 08:36:26;;;;;;;3.25;2.55;;;24.30;99.90;;;;;;4998515;28;20270;-70
2023/09/05 08:38:53;;;;;;;3.72;2.90;;;24.80;99.90;;;;;;5002001;28;20270;-70
2023/09/05 08:41:20;;;;;;;2.88;2.47;;;25.20;99.90;;;;;;4997871;28;20239;-70
2023/09/05 08:43:47;;;;;;;4.45;2.90;;;25.40;99.90;;;;;;4979324;28;20222;-71
2023/09/05 08:46:15;;;;;;;5.28;2.80;;;25.60;99.90;;;;;;4983963;28;20231;-70
2023/09/05 08:48:42;;;;;;;3.63;2.95;;;25.70;99.90;;;;;;4999754;28;20287;-70
2023/09/05 08:51:13;;;;;;;3.47;2.78;;;25.40;99.90;;;;;;4997771;28;20299;-70
2023/09/05 08:53:46;;;;;;;3.00;2.80;;;25.00;99.90;;;;;;4995030;28;20565;-70
2023/09/05 08:56:13;;;;;;;3.05;2.80;;;24.80;99.90;;;;;;4999492;28;20227;-70
2023/09/05 08:58:42;;;;;;;4.70;2.92;;;24.90;99.90;;;;;;4995267;28;20204;-70
2023/09/05 09:01:12;;;;;;;5.55;3.00;;;24.80;99.90;;;;;;4980928;28;20206;-70
2023/09/05 09:03:39;;;;;;;3.35;2.60;;;24.90;99.90;;;;;;5000277;28;20239;-70
2023/09/05 09:06:06;;;;;;;4.43;3.15;;;24.80;99.90;;;;;;4992828;28;20304;-70
2023/09/05 09:08:43;;;;;;;6.63;3.25;;;25.00;99.90;;;;;;4980064;28;20197;-70
2023/09/05 09:11:11;;;;;;;3.83;3.08;;;25.00;99.90;;;;;;4997981;28;20276;-70
2023/09/05 09:13:39;;;;;;;3.22;2.92;;;24.90;99.90;;;;;;4998328;28;20200;-70
2023/09/05 09:16:06;;;;;;;3.30;3.00;;;24.90;99.90;;;;;;5000292;28;20205;-70
2023/09/05 09:18:34;;;;;;;4.22;3.05;;;25.20;99.90;;;;;;4996641;28;20292;-70
2023/09/05 09:21:04;;;;;;;4.40;2.40;;;25.50;99.90;;;;;;4997809;28;20216;-70
2023/09/05 09:23:33;;;;;;;3.00;2.55;;;25.50;99.90;;;;;;4992966;28;20308;-70
2023/09/05 09:26:02;;;;;;;3.85;2.75;;;25.20;99.90;;;;;;4999728;28;20200;-70
2023/09/05 09:28:32;;;;;;;3.60;3.08;;;24.80;99.90;;;;;;5000592;28;20291;-70
2023/09/05 09:31:01;;;;;;;4.95;2.90;;;24.70;99.90;;;;;;4981701;28;20256;-70
2023/09/05 09:33:29;;;;;;;3.92;3.17;;;24.80;99.90;;;;;;4999099;28;20204;-70
2023/09/05 09:36:15;;;;;;;6.38;3.55;;;25.20;99.90;;;;;;4996516;28;20211;-70
2023/09/05 09:38:43;;;;;;;4.22;3.10;;;25.50;99.90;;;;;;5000504;28;20211;-70
2023/09/05 09:41:14;;;;;;;3.47;3.13;;;25.70;99.90;;;;;;5003803;28;20260;-70
2023/09/05 09:43:41;;;;;;;3.55;3.15;;;25.80;99.90;;;;;;4998688;28;20223;-70
2023/09/05 09:46:09;;;;;;;4.90;3.00;;;25.90;99.90;;;;;;4999743;28;20208;-70
2023/09/05 09:48:37;;;;;;;6.20;3.47;;;26.00;99.90;;;;;;5001591;28;20201;-70
2023/09/05 09:51:06;;;;;;;4.28;3.67;;;26.00;99.90;;;;;;5001525;28;20282;-70
2023/09/05 09:53:38;;;;;;;3.35;3.05;;;26.00;99.90;;;;;;5003341;28;20197;-70
2023/09/05 09:56:11;;;;;;;5.07;3.40;;;26.00;99.90;;;;;;5000419;28;20215;-70
2023/09/05 09:58:42;;;;;;;4.72;3.20;;;26.10;99.90;;;;;;4997675;28;20205;-70
2023/09/05 10:01:11;;;;;;;3.78;3.47;;;26.10;99.90;;;;;;4984306;28;20199;-70
2023/09/05 10:03:39;;;;;;;4.57;3.10;;;26.10;99.90;;;;;;4996829;28;20208;-70
2023/09/05 10:06:07;;;;;;;4.93;3.70;;;26.20;99.90;;;;;;4999715;28;20224;-70
2023/09/05 10:08:35;;;;;;;4.43;3.40;;;26.10;99.90;;;;;;4998058;28;20280;-70
2023/09/05 10:11:03;;;;;;;5.18;3.47;;;26.10;99.90;;;;;;4999208;28;20316;-70
2023/09/05 10:13:35;;;;;;;6.50;3.33;;;26.00;99.90;;;;;;5000386;28;20204;-70
2023/09/05 10:16:02;;;;;;;3.90;3.20;;;26.00;99.90;;;;;;5004308;28;20200;-70
2023/09/05 10:18:31;;;;;;;4.32;3.38;;;26.00;99.90;;;;;;4999847;28;20296;-70
2023/09/05 10:21:00;;;;;;;3.83;3.30;;;26.00;99.90;;;;;;5001901;28;20203;-70
2023/09/05 10:23:30;;;;;;;3.35;3.05;;;26.10;99.90;;;;;;4994368;28;20218;-70
2023/09/05 10:25:59;;;;;;;3.47;3.15;;;26.10;99.90;;;;;;4999449;28;20204;-70
2023/09/05 10:28:28;;;;;;;3.72;3.42;;;26.30;99.90;;;;;;5001891;28;20231;-70
2023/09/05 10:31:06;;;;;;;3.60;3.30;;;26.20;99.90;;;;;;5000844;28;20832;-70
2023/09/05 10:33:36;;;;;;;3.10;2.80;;;26.20;99.90;;;;;;4999805;28;20255;-70
2023/09/05 10:36:03;;;;;;;3.40;3.10;;;26.10;99.90;;;;;;5001367;28;20232;-70
2023/09/05 10:38:36;;;;;;;5.45;3.20;;;26.20;99.90;;;;;;4998017;28;20208;-70
2023/09/05 10:41:03;;;;;;;4.13;3.58;;;26.20;99.90;;;;;;5000478;28;20209;-71
2023/09/05 10:43:30;;;;;;;3.50;3.13;;;26.20;99.90;;;;;;4997415;28;20315;-71
2023/09/05 10:46:01;;;;;;;3.88;3.50;;;26.30;99.90;;;;;;4998341;28;20326;-71
2023/09/05 10:48:42;;;;;;;4.30;3.45;;;26.20;99.90;;;;;;5001269;28;20200;-70
2023/09/05 10:51:11;;;;;;;4.00;3.20;;;26.20;99.90;;;;;;4997625;28;20262;-71
2023/09/05 10:53:39;;;;;;;3.22;2.92;;;26.30;99.90;;;;;;4995944;28;20267;-71
2023/09/05 10:56:27;;;;;;;4.90;3.70;;;26.20;99.90;;;;;;5000681;28;20236;-71
2023/09/05 10:58:55;;;;;;;3.90;3.35;;;26.30;99.90;;;;;;4999000;28;20752;-71
2023/09/05 11:02:02;;;;;;;5.43;3.40;;;26.30;99.90;;;;;;4999912;28;20192;-71
2023/09/05 11:04:31;;;;;;;3.85;2.88;;;26.30;99.90;;;;;;4980951;28;20755;-71
2023/09/05 11:07:03;;;;;;;4.57;3.38;;;26.30;99.90;;;;;;4994681;28;20205;-70
2023/09/05 11:09:39;;;;;;;4.90;3.40;;;26.20;99.90;;;;;;4996064;28;20199;-70
2023/09/05 11:12:07;;;;;;;3.20;2.90;;;26.20;99.90;;;;;;4997439;28;20200;-71
2023/09/05 11:14:36;;;;;;;5.45;3.78;;;26.20;99.90;;;;;;4994890;28;20240;-69
2023/09/05 11:17:03;;;;;;;4.15;3.20;;;26.20;99.90;;;;;;4995823;28;20226;-69
2023/09/05 11:19:38;;;;;;;3.55;3.25;;;26.20;99.90;;;;;;4995674;28;20658;-71
2023/09/05 11:22:10;;;;;;;3.97;3.55;;;26.20;99.90;;;;;;4994708;28;20200;-70
2023/09/05 11:24:38;;;;;;;4.38;3.00;;;26.20;99.90;;;;;;4995648;28;20216;-70
2023/09/05 11:27:07;;;;;;;4.65;3.72;;;26.30;99.90;;;;;;4997492;28;20740;-70
2023/09/05 11:29:34;;;;;;;4.50;3.40;;;26.30;99.90;;;;;;4980728;28;20200;-70
2023/09/05 11:32:01;;;;;;;3.65;3.13;;;26.40;99.90;;;;;;4999968;28;20295;-70
2023/09/05 11:34:29;;;;;;;3.10;2.90;;;26.40;99.90;;;;;;4996979;28;20228;-70
2023/09/05 11:36:57;;;;;;;3.38;2.95;;;26.40;99.90;;;;;;4994800;28;20294;-70
2023/09/05 11:39:28;;;;;;;5.68;3.22;;;26.40;99.90;;;;;;4996741;28;20292;-70
2023/09/05 11:41:58;;;;;;;4.03;2.90;;;26.50;99.90;;;;;;4996609;28;20915;-70
2023/09/05 11:44:38;;;;;;;3.00;2.80;;;26.60;99.90;;;;;;4978959;28;20282;-70
2023/09/05 11:47:06;;;;;;;3.00;2.80;;;26.70;99.90;;;;;;4997300;28;20266;-70
2023/09/05 11:49:34;;;;;;;3.35;3.05;;;26.70;99.90;;;;;;4998188;28;20192;-70
2023/09/05 11:52:04;;;;;;;3.45;3.15;;;26.70;99.90;;;;;;4977575;28;20286;-70
2023/09/05 11:54:32;;;;;;;4.05;3.10;;;26.80;99.90;;;;;;4991658;28;20221;-70
2023/09/05 11:57:02;;;;;;;3.17;2.80;;;26.70;99.90;;;;;;4993572;28;20212;-70
2023/09/05 11:59:30;;;;;;;3.53;3.15;;;26.80;99.90;;;;;;5000422;28;20855;-70
2023/09/05 12:01:57;;;;;;;3.50;3.20;;;26.80;99.90;;;;;;4982601;28;20291;-70
2023/09/05 12:04:24;;;;;;;3.03;2.72;;;26.90;99.90;;;;;;4981738;28;20258;-70
2023/09/05 12:06:52;;;;;;;2.72;2.53;;;26.80;99.90;;;;;;4991099;28;20239;-71
2023/09/05 12:09:21;;;;;;;4.43;2.97;;;27.00;99.90;;;;;;4994328;28;20269;-70
2023/09/05 12:11:50;;;;;;;6.10;3.25;;;27.00;99.90;;;;;;4997204;28;20363;-70
2023/09/05 12:14:20;;;;;;;3.85;2.85;;;27.00;99.90;;;;;;4996436;28;20212;-70
2023/09/05 12:16:48;;;;;;;3.08;2.83;;;26.90;99.90;;;;;;4998154;28;20675;-70
2023/09/05 12:19:17;;;;;;;3.17;2.88;;;26.90;99.90;;;;;;4997759;28;20204;-70
2023/09/05 12:21:46;;;;;;;3.47;3.17;;;27.10;99.90;;;;;;4979772;28;20218;-70
2023/09/05 12:24:22;;;;;;;3.05;2.78;;;27.10;99.90;;;;;;4996957;28;20319;-70
2023/09/05 12:26:52;;;;;;;3.17;2.85;;;27.00;99.90;;;;;;4962593;28;20295;-70
2023/09/05 12:29:21;;;;;;;4.15;3.08;;;27.00;99.90;;;;;;4977978;28;20203;-70
2023/09/05 12:31:53;;;;;;;3.60;2.55;;;26.90;99.90;;;;;;4996412;28;20216;-70
2023/09/05 12:34:21;;;;;;;3.38;3.03;;;26.80;99.90;;;;;;4997543;28;20666;-70
2023/09/05 12:36:50;;;;;;;3.30;3.00;;;26.80;99.90;;;;;;4982088;28;20215;-70
2023/09/05 12:39:17;;;;;;;3.28;2.95;;;26.70;99.90;;;;;;4998998;28;20204;-70
2023/09/05 12:41:46;;;;;;;4.13;2.80;;;26.70;99.90;;;;;;5000463;28;20231;-70
2023/09/05 12:44:15;;;;;;;4.25;3.55;;;26.70;99.90;;;;;;4997823;28;20248;-70
2023/09/05 12:46:42;;;;;;;4.15;2.80;;;26.70;99.90;;;;;;4978954;28;20921;-70
2023/09/05 12:49:12;;;;;;;4.55;3.17;;;26.60;99.90;;;;;;4995548;28;20207;-70
2023/09/05 12:51:40;;;;;;;3.40;3.10;;;26.60;99.90;;;;;;4980878;28;20207;-71
2023/09/05 12:54:07;;;;;;;4.93;3.45;;;26.60;99.90;;;;;;5001315;28;20303;-71